Time;durP1;ratioP1;P1;durP2;ratioP2;P2;SDS_P1;SDS_P2;PMS_P1;PMS_P2;Temp;Humidity;BMP_temperature;BMP_pressure;BME280_temperature;BME280_humidity;BME280_pressure;Samples;Min_cycle;Max_cycle;Signal;HPM_P1;HPM_P2
2023/12/08 00:01:33;;;;;;;21.50;8.30;;;;;;;-0.16;100.00;95850.78;5011600;28;20542;-69
2023/12/08 00:04:00;;;;;;;15.87;7.30;;;;;;;-0.16;100.00;95852.56;5007163;28;20207;-69
2023/12/08 00:06:26;;;;;;;17.57;7.50;;;;;;;-0.06;100.00;95853.44;5015532;28;21267;-69
2023/12/08 00:08:52;;;;;;;20.53;7.77;;;;;;;-0.07;100.00;95849.25;5014825;28;20581;-69
2023/12/08 00:11:19;;;;;;;19.53;8.57;;;;;;;-0.15;100.00;95851.59;5007813;28;20237;-69
2023/12/08 00:13:45;;;;;;;17.40;7.37;;;;;;;-0.16;100.00;95849.97;5014970;28;20209;-69
2023/12/08 00:16:13;;;;;;;19.73;8.10;;;;;;;-0.05;100.00;95844.75;5015170;28;20224;-69
2023/12/08 00:18:40;;;;;;;21.97;8.70;;;;;;;-0.13;100.00;95826.41;5016585;28;20221;-69
2023/12/08 00:21:07;;;;;;;20.83;7.90;;;;;;;-0.21;100.00;95823.63;5018425;28;20233;-69
2023/12/08 00:23:33;;;;;;;22.47;7.77;;;;;;;-0.33;100.00;95829.75;5019241;28;20303;-69
2023/12/08 00:26:00;;;;;;;18.53;7.57;;;;;;;-0.29;100.00;95832.00;5019065;28;20212;-69
2023/12/08 00:28:27;;;;;;;20.87;7.87;;;;;;;-0.17;100.00;95818.06;5018515;28;20292;-69
2023/12/08 00:30:53;;;;;;;19.27;7.53;;;;;;;-0.07;100.00;95815.56;5018467;28;20221;-68
2023/12/08 00:33:22;;;;;;;16.80;8.33;;;;;;;0.04;100.00;95806.81;5019524;28;21106;-68
2023/12/08 00:35:49;;;;;;;22.03;8.87;;;;;;;-0.09;100.00;95802.72;5018804;28;20567;-68
2023/12/08 00:38:15;;;;;;;22.10;9.27;;;;;;;-0.08;100.00;95801.78;5010896;28;20208;-68
2023/12/08 00:40:42;;;;;;;27.40;9.20;;;;;;;-0.09;100.00;95801.91;5009412;28;20233;-69
2023/12/08 00:43:08;;;;;;;22.10;8.70;;;;;;;-0.13;100.00;95792.75;5001274;28;20264;-68
2023/12/08 00:45:35;;;;;;;22.90;9.13;;;;;;;-0.11;100.00;95796.06;5000534;28;20233;-69
2023/12/08 00:48:01;;;;;;;22.27;8.70;;;;;;;-0.20;100.00;95799.38;5000253;28;20736;-69
2023/12/08 00:50:29;;;;;;;18.03;7.57;;;;;;;-0.21;100.00;95797.75;5000424;28;20601;-69
2023/12/08 00:52:55;;;;;;;20.90;9.23;;;;;;;-0.14;100.00;95788.53;5000785;28;20213;-69
2023/12/08 00:55:22;;;;;;;20.60;8.67;;;;;;;-0.20;100.00;95787.25;5000272;28;20214;-69
2023/12/08 00:57:49;;;;;;;21.83;8.07;;;;;;;-0.19;100.00;95782.88;5000170;28;20236;-69
2023/12/08 01:00:17;;;;;;;25.30;9.27;;;;;;;-0.15;100.00;95784.28;5000487;28;20234;-68
2023/12/08 01:02:44;;;;;;;27.03;9.30;;;;;;;-0.14;100.00;95775.56;5000083;28;20209;-68
2023/12/08 01:05:10;;;;;;;28.70;10.13;;;;;;;-0.14;100.00;95776.41;5000293;28;20706;-69
2023/12/08 01:07:38;;;;;;;28.47;9.93;;;;;;;-0.13;100.00;95782.41;5000398;28;20212;-69
2023/12/08 01:10:07;;;;;;;25.57;9.40;;;;;;;-0.24;100.00;95790.19;4999518;28;20229;-69
2023/12/08 01:12:33;;;;;;;26.33;10.27;;;;;;;-0.17;100.00;95786.19;5007396;28;20594;-68
2023/12/08 01:15:00;;;;;;;26.90;10.30;;;;;;;-0.21;100.00;95784.78;5001336;28;20212;-68
2023/12/08 01:17:26;;;;;;;21.20;8.60;;;;;;;-0.07;100.00;95767.19;5003008;28;20233;-69
2023/12/08 01:19:53;;;;;;;21.07;8.37;;;;;;;0.01;100.00;95770.81;4999671;28;20226;-68
2023/12/08 01:22:19;;;;;;;23.57;9.57;;;;;;;0.10;100.00;95770.06;5000092;28;20229;-69
2023/12/08 01:24:48;;;;;;;20.67;9.83;;;;;;;0.14;100.00;95773.19;4999861;28;20215;-69
2023/12/08 01:27:14;;;;;;;26.97;9.70;;;;;;;-0.07;100.00;95790.50;5000130;28;20201;-69
2023/12/08 01:29:41;;;;;;;23.57;8.63;;;;;;;0.14;100.00;95799.09;4998381;28;20237;-69
2023/12/08 01:32:07;;;;;;;27.23;8.90;;;;;;;0.16;100.00;95805.78;5000262;28;20215;-69
2023/12/08 01:34:34;;;;;;;24.30;9.37;;;;;;;0.21;100.00;95790.69;4999627;28;20212;-69
2023/12/08 01:37:00;;;;;;;29.73;9.80;;;;;;;0.18;100.00;95793.56;5000685;28;20226;-69
2023/12/08 01:39:27;;;;;;;24.53;10.77;;;;;;;0.21;100.00;95780.34;4998234;28;20222;-69
2023/12/08 01:41:54;;;;;;;26.73;10.60;;;;;;;0.44;100.00;95774.09;4999027;28;20202;-68
2023/12/08 01:44:21;;;;;;;26.53;10.50;;;;;;;0.28;100.00;95771.13;5000251;28;20206;-69
2023/12/08 01:46:48;;;;;;;20.70;9.33;;;;;;;0.37;100.00;95757.41;4999497;28;20205;-68
2023/12/08 01:49:16;;;;;;;25.47;10.37;;;;;;;0.31;100.00;95757.91;4998658;28;20208;-69
2023/12/08 01:51:43;;;;;;;22.00;9.00;;;;;;;0.38;100.00;95779.78;4999577;28;20213;-68
2023/12/08 01:54:10;;;;;;;19.60;8.83;;;;;;;0.29;100.00;95792.66;5007384;28;20302;-69
2023/12/08 01:56:37;;;;;;;20.23;8.70;;;;;;;0.27;100.00;95782.44;4998784;28;20283;-69
2023/12/08 01:59:05;;;;;;;20.57;8.83;;;;;;;0.56;100.00;95767.06;4998926;28;20211;-69
2023/12/08 02:01:32;;;;;;;23.87;9.47;;;;;;;0.35;100.00;95756.72;4999349;28;20217;-68
2023/12/08 02:03:58;;;;;;;22.97;8.97;;;;;;;0.27;100.00;95747.94;4999286;28;20579;-69
2023/12/08 02:06:25;;;;;;;21.37;7.43;;;;;;;0.35;100.00;95740.34;4999190;28;20215;-69
2023/12/08 02:08:52;;;;;;;24.50;10.07;;;;;;;0.18;100.00;95731.38;4998933;28;20213;-69
2023/12/08 02:11:19;;;;;;;24.07;9.17;;;;;;;0.08;100.00;95729.69;4998647;28;20240;-68
2023/12/08 02:13:46;;;;;;;27.20;10.57;;;;;;;-0.17;100.00;95737.81;4999053;28;20230;-68
2023/12/08 02:16:26;;;;;;;24.40;9.83;;;;;;;0.17;100.00;95724.56;4999278;28;20707;-69
2023/12/08 02:18:54;;;;;;;28.40;8.80;;;;;;;-0.39;100.00;95711.22;4998117;28;20447;-68
2023/12/08 02:21:21;;;;;;;26.10;9.90;;;;;;;-0.29;100.00;95710.34;4999012;28;20233;-69
2023/12/08 02:23:50;;;;;;;28.57;10.00;;;;;;;-0.25;100.00;95727.25;4998657;28;20210;-68
2023/12/08 02:26:17;;;;;;;25.40;8.53;;;;;;;-0.34;100.00;95712.47;4999553;28;20210;-68
2023/12/08 02:28:44;;;;;;;23.20;9.40;;;;;;;-0.53;100.00;95690.81;4998423;28;20205;-69
2023/12/08 02:31:12;;;;;;;26.47;11.00;;;;;;;-0.28;100.00;95714.59;4998522;28;20951;-68
2023/12/08 02:33:43;;;;;;;28.40;10.30;;;;;;;0.05;100.00;95723.00;4998672;28;20938;-68
2023/12/08 02:36:10;;;;;;;28.70;12.17;;;;;;;0.17;100.00;95715.97;4998841;28;20875;-68
2023/12/08 02:38:38;;;;;;;27.00;9.93;;;;;;;0.23;100.00;95713.69;4998037;28;20238;-68
2023/12/08 02:41:06;;;;;;;28.30;10.43;;;;;;;0.24;100.00;95707.56;4998388;28;20222;-68
2023/12/08 02:43:32;;;;;;;29.73;10.67;;;;;;;0.23;100.00;95715.44;4998912;28;20587;-68
2023/12/08 02:45:59;;;;;;;28.57;10.40;;;;;;;0.36;100.00;95691.00;4997946;28;20199;-68
2023/12/08 02:48:25;;;;;;;29.73;11.80;;;;;;;0.25;100.00;95688.47;4998462;28;20208;-68
2023/12/08 02:50:52;;;;;;;32.03;10.60;;;;;;;0.20;100.00;95672.47;4998332;28;20226;-68
2023/12/08 02:53:18;;;;;;;27.03;9.83;;;;;;;-0.13;100.00;95666.72;4997479;28;20209;-68
2023/12/08 02:55:45;;;;;;;20.13;8.97;;;;;;;-0.10;100.00;95663.03;4998913;28;20221;-69
2023/12/08 02:58:13;;;;;;;19.67;8.97;;;;;;;0.24;100.00;95658.34;5003054;28;20232;-68
2023/12/08 03:00:39;;;;;;;27.50;9.87;;;;;;;0.21;100.00;95699.22;5001034;28;20697;-68
2023/12/08 03:03:06;;;;;;;22.07;7.73;;;;;;;0.09;100.00;95700.25;4997647;28;20702;-68
2023/12/08 03:05:33;;;;;;;22.40;9.13;;;;;;;0.20;100.00;95689.81;4998568;28;20206;-68
2023/12/08 03:07:59;;;;;;;24.63;9.30;;;;;;;0.35;100.00;95678.16;4997817;28;20205;-68
2023/12/08 03:10:26;;;;;;;33.87;12.07;;;;;;;0.27;100.00;95672.81;4998232;28;20226;-68
2023/12/08 03:12:52;;;;;;;28.27;10.63;;;;;;;0.25;100.00;95706.59;4998069;28;20221;-68
2023/12/08 03:15:20;;;;;;;33.20;10.53;;;;;;;0.54;100.00;95681.66;4997979;28;20209;-68
2023/12/08 03:17:46;;;;;;;23.47;9.47;;;;;;;0.28;100.00;95727.09;4998167;28;20226;-68
2023/12/08 03:20:13;;;;;;;28.03;10.03;;;;;;;0.10;100.00;95749.34;4997960;28;20234;-68
2023/12/08 03:22:39;;;;;;;28.97;11.10;;;;;;;0.19;100.00;95714.91;4998227;28;20213;-68
2023/12/08 03:25:06;;;;;;;32.50;11.60;;;;;;;0.31;100.00;95711.28;4997742;28;20294;-68
2023/12/08 03:27:32;;;;;;;29.27;11.43;;;;;;;0.24;100.00;95706.72;4998023;28;20197;-68
2023/12/08 03:29:59;;;;;;;29.83;10.67;;;;;;;0.22;100.00;95698.28;4997399;28;20226;-68
2023/12/08 03:32:27;;;;;;;30.97;12.13;;;;;;;0.25;100.00;95693.66;5003902;28;20202;-68
2023/12/08 03:34:53;;;;;;;28.13;10.30;;;;;;;0.36;100.00;95687.59;4996673;28;20209;-68
2023/12/08 03:37:20;;;;;;;23.67;9.60;;;;;;;0.52;100.00;95693.91;4997798;28;20222;-69
2023/12/08 03:39:47;;;;;;;24.87;9.67;;;;;;;0.63;100.00;95692.06;4997337;28;20648;-69
2023/12/08 03:42:13;;;;;;;27.53;11.33;;;;;;;0.63;100.00;95701.59;4997340;28;20198;-68
2023/12/08 03:44:40;;;;;;;23.17;10.20;;;;;;;0.68;100.00;95676.13;4997511;28;20210;-68
2023/12/08 03:47:06;;;;;;;29.80;10.87;;;;;;;0.61;100.00;95675.81;4997442;28;20205;-69
2023/12/08 03:49:34;;;;;;;23.60;10.10;;;;;;;0.66;100.00;95660.69;4997505;28;20349;-68
2023/12/08 03:52:00;;;;;;;27.80;10.27;;;;;;;0.68;100.00;95673.53;4997366;28;20206;-69
2023/12/08 03:54:27;;;;;;;26.67;10.70;;;;;;;0.70;100.00;95684.56;4999269;28;20202;-68
2023/12/08 03:56:53;;;;;;;21.70;8.43;;;;;;;0.80;100.00;95675.06;5000857;28;20199;-69
2023/12/08 03:59:20;;;;;;;27.33;10.17;;;;;;;0.82;100.00;95692.13;5000891;28;20217;-69
2023/12/08 04:01:46;;;;;;;26.60;9.47;;;;;;;0.80;100.00;95685.44;5001833;28;20202;-68
2023/12/08 04:04:13;;;;;;;26.87;9.73;;;;;;;0.81;100.00;95687.06;5001338;28;20207;-68
2023/12/08 04:06:41;;;;;;;22.93;8.73;;;;;;;0.98;100.00;95673.47;5009137;28;20585;-68
2023/12/08 04:09:07;;;;;;;25.47;9.40;;;;;;;0.52;100.00;95678.34;5001030;28;20198;-69
2023/12/08 04:11:34;;;;;;;26.97;10.43;;;;;;;0.69;100.00;95667.41;5002007;28;20224;-68
2023/12/08 04:14:00;;;;;;;25.47;9.67;;;;;;;0.63;100.00;95684.28;5000904;28;20576;-68
2023/12/08 04:16:26;;;;;;;28.90;10.60;;;;;;;0.72;100.00;95693.03;5001681;28;20203;-68
2023/12/08 04:18:53;;;;;;;24.23;9.80;;;;;;;0.79;100.00;95702.75;5000496;28;21183;-68
2023/12/08 04:21:20;;;;;;;21.20;8.80;;;;;;;0.82;100.00;95706.88;5001703;28;20221;-68
2023/12/08 04:23:47;;;;;;;21.13;8.53;;;;;;;0.88;100.00;95701.13;5000482;28;20676;-69
2023/12/08 04:26:14;;;;;;;29.20;9.23;;;;;;;0.85;100.00;95698.81;5001070;28;20289;-69
2023/12/08 04:28:41;;;;;;;16.97;7.93;;;;;;;0.83;100.00;95704.13;5000982;28;20206;-68
2023/12/08 04:31:07;;;;;;;24.40;9.43;;;;;;;0.88;100.00;95711.50;5000619;28;20731;-68
2023/12/08 04:33:34;;;;;;;24.07;9.30;;;;;;;0.82;100.00;95691.31;5001128;28;20205;-68
2023/12/08 04:36:01;;;;;;;22.60;8.70;;;;;;;0.78;100.00;95688.16;5000789;28;20684;-68
2023/12/08 04:38:27;;;;;;;22.53;9.53;;;;;;;0.78;100.00;95689.94;4999943;28;20229;-71
2023/12/08 04:40:55;;;;;;;26.07;9.60;;;;;;;0.80;100.00;95703.56;5008214;28;20226;-69
2023/12/08 04:43:21;;;;;;;23.23;9.90;;;;;;;0.80;100.00;95699.22;5001061;28;20198;-69
2023/12/08 04:45:48;;;;;;;24.57;9.40;;;;;;;0.84;100.00;95710.13;5000392;28;20211;-68
2023/12/08 04:48:14;;;;;;;31.17;9.70;;;;;;;0.74;100.00;95710.13;5000273;28;20195;-68
2023/12/08 04:50:41;;;;;;;23.10;9.03;;;;;;;0.83;100.00;95709.31;5000844;28;20223;-68
2023/12/08 04:53:07;;;;;;;22.30;9.53;;;;;;;0.89;100.00;95713.16;4999876;28;20616;-68
2023/12/08 04:55:33;;;;;;;22.33;9.30;;;;;;;0.88;100.00;95708.91;5001095;28;20207;-68
2023/12/08 04:58:01;;;;;;;22.53;9.30;;;;;;;1.00;100.00;95710.47;4999723;28;20234;-68
2023/12/08 05:00:27;;;;;;;27.20;9.37;;;;;;;0.83;100.00;95698.16;5000506;28;20218;-68
2023/12/08 05:02:57;;;;;;;19.30;8.23;;;;;;;0.77;100.00;95703.84;5000262;28;20209;-68
2023/12/08 05:05:24;;;;;;;29.10;10.80;;;;;;;0.88;100.00;95711.50;4999851;28;20206;-68
2023/12/08 05:07:50;;;;;;;24.17;9.27;;;;;;;0.72;100.00;95737.13;5002255;28;20198;-68
2023/12/08 05:10:17;;;;;;;35.80;11.87;;;;;;;0.50;100.00;95763.22;4999915;28;20221;-68
2023/12/08 05:12:44;;;;;;;24.27;10.27;;;;;;;0.30;100.00;95774.41;5001167;28;20205;-68
2023/12/08 05:15:12;;;;;;;30.17;11.10;;;;;;;0.17;100.00;95776.38;4999703;28;20210;-68
2023/12/08 05:17:38;;;;;;;30.83;12.20;;;;;;;0.17;100.00;95760.00;4999792;28;20232;-68
2023/12/08 05:20:06;;;;;;;29.93;9.63;;;;;;;0.47;100.00;95757.47;4999351;28;20229;-68
2023/12/08 05:22:33;;;;;;;26.90;10.27;;;;;;;0.46;100.00;95743.69;5001649;28;20316;-68
2023/12/08 05:24:59;;;;;;;34.17;12.23;;;;;;;0.55;100.00;95749.84;4998916;28;20217;-68
2023/12/08 05:27:26;;;;;;;26.87;10.70;;;;;;;0.55;100.00;95755.88;4999801;28;20203;-68
2023/12/08 05:29:52;;;;;;;24.07;10.23;;;;;;;0.59;100.00;95739.91;4999514;28;20228;-68
2023/12/08 05:32:20;;;;;;;25.00;10.50;;;;;;;0.72;100.00;95727.56;4999897;28;20740;-68
2023/12/08 05:34:47;;;;;;;27.97;10.77;;;;;;;0.51;100.00;95718.22;4998990;28;20216;-68
2023/12/08 05:37:13;;;;;;;26.87;9.43;;;;;;;0.63;100.00;95728.34;5000196;28;20203;-69
2023/12/08 05:39:40;;;;;;;30.50;10.90;;;;;;;0.70;100.00;95739.00;5000842;28;20232;-69
2023/12/08 05:42:06;;;;;;;29.90;12.97;;;;;;;0.71;100.00;95735.47;4999577;28;20230;-69
2023/12/08 05:44:33;;;;;;;23.47;8.53;;;;;;;0.82;100.00;95736.19;5003577;28;20221;-69
2023/12/08 05:46:59;;;;;;;28.73;10.70;;;;;;;0.93;100.00;95730.09;5000417;28;20221;-69
2023/12/08 05:49:27;;;;;;;26.50;10.03;;;;;;;1.11;100.00;95738.88;4998359;28;20221;-69
2023/12/08 05:51:53;;;;;;;26.60;10.47;;;;;;;0.89;100.00;95757.25;5007617;28;20663;-69
2023/12/08 05:54:20;;;;;;;26.47;9.97;;;;;;;0.62;100.00;95752.66;4998711;28;20675;-69
2023/12/08 05:56:46;;;;;;;31.77;10.90;;;;;;;0.70;100.00;95754.56;5005746;28;20226;-69
2023/12/08 05:59:13;;;;;;;33.80;11.47;;;;;;;0.74;100.00;95751.59;5004443;28;20222;-69
2023/12/08 06:01:39;;;;;;;25.00;10.50;;;;;;;0.72;100.00;95752.69;5005234;28;20213;-69
2023/12/08 06:04:06;;;;;;;22.13;9.03;;;;;;;0.82;100.00;95753.53;4998863;28;20206;-68
2023/12/08 06:06:34;;;;;;;21.93;8.93;;;;;;;0.87;100.00;95759.16;4998741;28;20210;-69
2023/12/08 06:09:00;;;;;;;24.27;9.90;;;;;;;0.65;100.00;95754.16;4998201;28;20216;-69
2023/12/08 06:11:28;;;;;;;29.20;11.07;;;;;;;0.83;100.00;95750.00;4998656;28;20347;-69
2023/12/08 06:13:54;;;;;;;23.67;9.80;;;;;;;0.74;100.00;95755.97;4998544;28;20843;-68
2023/12/08 06:16:21;;;;;;;32.60;10.90;;;;;;;0.55;100.00;95786.97;4998522;28;20213;-69
2023/12/08 06:18:47;;;;;;;27.10;10.10;;;;;;;0.75;100.00;95763.63;4998433;28;20727;-69
2023/12/08 06:21:14;;;;;;;27.07;9.83;;;;;;;0.63;100.00;95784.56;4998942;28;20245;-69
2023/12/08 06:23:42;;;;;;;22.83;9.47;;;;;;;0.82;100.00;95774.28;4998952;28;20203;-68
2023/12/08 06:26:08;;;;;;;32.07;11.93;;;;;;;0.73;100.00;95767.28;4998748;28;20224;-68
2023/12/08 06:28:35;;;;;;;27.70;10.13;;;;;;;0.59;100.00;95763.25;4998493;28;20206;-69
2023/12/08 06:31:02;;;;;;;33.57;10.40;;;;;;;0.67;100.00;95755.63;4998455;28;20226;-70
2023/12/08 06:33:29;;;;;;;26.33;9.40;;;;;;;0.77;100.00;95782.44;4999142;28;20791;-71
2023/12/08 06:35:55;;;;;;;30.73;10.83;;;;;;;0.79;100.00;95759.81;5011132;28;20198;-70
2023/12/08 06:38:22;;;;;;;27.87;11.30;;;;;;;0.90;100.00;95762.28;5020861;28;20549;-70
2023/12/08 06:40:49;;;;;;;28.93;11.37;;;;;;;1.11;100.00;95752.69;5023671;28;20599;-70
2023/12/08 06:43:16;;;;;;;45.53;12.33;;;;;;;0.78;100.00;95757.34;5026634;28;20202;-70
2023/12/08 06:45:42;;;;;;;40.90;12.47;;;;;;;0.78;100.00;95758.16;5014949;28;20203;-70
2023/12/08 06:48:09;;;;;;;36.03;12.03;;;;;;;1.01;100.00;95753.63;4998045;28;20203;-70
2023/12/08 06:50:35;;;;;;;41.10;12.43;;;;;;;1.16;100.00;95754.88;4999003;28;20218;-70
2023/12/08 06:53:02;;;;;;;27.67;10.90;;;;;;;1.13;100.00;95757.75;5000853;28;20285;-70
2023/12/08 06:55:28;;;;;;;26.80;11.20;;;;;;;1.07;100.00;95753.06;5006570;28;20194;-70
2023/12/08 06:57:56;;;;;;;27.00;10.00;;;;;;;1.26;100.00;95753.94;5003893;28;20216;-70
2023/12/08 07:00:23;;;;;;;21.40;9.00;;;;;;;1.11;100.00;95754.44;5000096;28;20242;-70
2023/12/08 07:02:51;;;;;;;27.27;11.40;;;;;;;1.37;100.00;95752.06;5002863;28;20595;-70
2023/12/08 07:05:19;;;;;;;26.50;10.77;;;;;;;1.32;100.00;95764.66;5004262;28;20201;-70
2023/12/08 07:07:46;;;;;;;19.60;9.53;;;;;;;0.91;100.00;95763.13;5009009;28;20208;-70
2023/12/08 07:10:13;;;;;;;22.57;9.17;;;;;;;1.28;100.00;95763.25;5005455;28;20218;-70
2023/12/08 07:12:39;;;;;;;17.33;8.37;;;;;;;1.28;100.00;95752.84;5006904;28;20687;-70
2023/12/08 07:15:08;;;;;;;33.67;11.37;;;;;;;1.48;100.00;95746.75;5009116;28;20800;-70
2023/12/08 07:17:34;;;;;;;19.17;8.77;;;;;;;1.33;100.00;95749.88;5006673;28;20202;-70
2023/12/08 07:20:01;;;;;;;22.00;9.40;;;;;;;1.18;100.00;95753.78;5006832;28;20242;-70
2023/12/08 07:22:29;;;;;;;19.00;8.93;;;;;;;1.37;100.00;95746.06;5006615;28;20591;-70
2023/12/08 07:24:56;;;;;;;22.53;9.17;;;;;;;1.47;100.00;95745.13;5015278;28;20320;-70
2023/12/08 07:27:22;;;;;;;20.60;9.50;;;;;;;1.58;100.00;95738.97;5020129;28;20608;-69
2023/12/08 07:29:49;;;;;;;20.93;10.30;;;;;;;1.64;100.00;95731.47;5018553;28;20257;-70
2023/12/08 07:32:17;;;;;;;20.13;9.07;;;;;;;1.86;100.00;95728.63;5021143;28;21010;-69
2023/12/08 07:34:43;;;;;;;24.00;9.03;;;;;;;1.80;100.00;95736.16;5024380;28;20234;-69
2023/12/08 07:37:10;;;;;;;29.33;11.77;;;;;;;1.66;100.00;95736.53;5020794;28;20209;-69
2023/12/08 07:39:37;;;;;;;33.40;11.53;;;;;;;1.61;100.00;95739.53;5019249;28;20221;-69
2023/12/08 07:42:04;;;;;;;31.87;11.93;;;;;;;1.74;100.00;95742.69;5019176;28;20207;-69
2023/12/08 07:44:30;;;;;;;24.87;10.97;;;;;;;1.72;100.00;95742.00;5023167;28;20220;-69
2023/12/08 07:46:57;;;;;;;19.63;9.30;;;;;;;1.84;100.00;95746.09;5024388;28;20210;-69
2023/12/08 07:49:24;;;;;;;31.80;9.37;;;;;;;1.95;100.00;95748.59;5023140;28;20200;-69
2023/12/08 07:51:51;;;;;;;24.13;9.53;;;;;;;1.80;100.00;95754.31;5018688;28;20208;-69
2023/12/08 07:54:17;;;;;;;20.20;8.87;;;;;;;1.90;100.00;95755.97;5018206;28;20218;-69
2023/12/08 07:56:44;;;;;;;23.60;9.47;;;;;;;1.64;100.00;95769.59;5019267;28;20289;-69
2023/12/08 07:59:10;;;;;;;23.73;9.57;;;;;;;1.80;100.00;95772.50;5019387;28;20225;-70
2023/12/08 08:01:37;;;;;;;21.37;9.30;;;;;;;1.95;100.00;95777.97;5021563;28;20206;-69
2023/12/08 08:04:04;;;;;;;49.90;14.87;;;;;;;1.70;100.00;95769.88;5018378;28;20260;-70
2023/12/08 08:06:32;;;;;;;29.20;10.67;;;;;;;1.96;100.00;95760.59;5017197;28;20205;-69
2023/12/08 08:08:59;;;;;;;25.43;11.17;;;;;;;1.92;100.00;95748.84;5011579;28;20205;-69
2023/12/08 08:11:25;;;;;;;24.73;9.90;;;;;;;2.15;100.00;95745.00;5023936;28;20225;-69
2023/12/08 08:13:51;;;;;;;24.83;9.13;;;;;;;2.14;100.00;95748.56;5020197;28;20205;-69
2023/12/08 08:16:18;;;;;;;23.63;9.80;;;;;;;2.34;100.00;95745.78;5019154;28;20208;-69
2023/12/08 08:18:45;;;;;;;18.23;8.47;;;;;;;2.52;100.00;95744.09;5013765;28;20242;-70
2023/12/08 08:21:11;;;;;;;17.27;7.53;;;;;;;2.40;100.00;95744.44;5002670;28;20217;-70
2023/12/08 08:23:41;;;;;;;23.90;8.93;;;;;;;2.70;100.00;95743.25;5009748;28;20209;-69
2023/12/08 08:26:08;;;;;;;21.20;9.27;;;;;;;2.77;100.00;95746.91;5019951;28;20208;-69
2023/12/08 08:28:35;;;;;;;27.17;12.10;;;;;;;2.76;100.00;95758.31;5014867;28;20209;-70
2023/12/08 08:31:01;;;;;;;19.73;9.03;;;;;;;2.75;100.00;95754.06;5022227;28;20320;-69
2023/12/08 08:33:28;;;;;;;18.40;9.03;;;;;;;2.81;100.00;95756.06;5007796;28;20204;-70
2023/12/08 08:35:55;;;;;;;22.70;8.60;;;;;;;2.83;100.00;95746.34;5000657;28;20665;-70
2023/12/08 08:38:21;;;;;;;19.03;8.37;;;;;;;2.75;100.00;95742.81;5002038;28;20209;-69
2023/12/08 08:40:49;;;;;;;22.67;9.77;;;;;;;2.98;100.00;95742.34;5005001;28;20229;-70
2023/12/08 08:43:16;;;;;;;27.03;10.77;;;;;;;2.95;100.00;95747.81;5006995;28;20303;-70
2023/12/08 08:45:43;;;;;;;23.07;9.57;;;;;;;2.90;100.00;95744.00;5000010;28;20209;-70
2023/12/08 08:48:09;;;;;;;13.47;5.90;;;;;;;3.61;100.00;95741.44;4998347;28;20976;-69
2023/12/08 08:50:36;;;;;;;18.37;8.37;;;;;;;3.34;100.00;95737.06;4998877;28;20219;-70
2023/12/08 08:53:03;;;;;;;21.60;9.13;;;;;;;3.44;100.00;95732.63;4999062;28;20241;-70
2023/12/08 08:55:29;;;;;;;25.60;9.90;;;;;;;3.19;100.00;95729.91;4998708;28;20212;-70
2023/12/08 08:57:57;;;;;;;20.03;8.70;;;;;;;2.88;100.00;95744.16;5004610;28;20693;-70
2023/12/08 09:00:26;;;;;;;18.77;9.13;;;;;;;2.94;100.00;95747.94;4998367;28;20326;-70
2023/12/08 09:02:52;;;;;;;18.33;8.27;;;;;;;2.83;100.00;95735.94;4999689;28;20199;-70
2023/12/08 09:05:19;;;;;;;19.23;9.13;;;;;;;2.89;100.00;95740.59;5003260;28;20203;-70
2023/12/08 09:07:45;;;;;;;18.47;8.10;;;;;;;2.82;100.00;95741.28;5006772;28;20204;-70
2023/12/08 09:10:12;;;;;;;17.70;7.97;;;;;;;2.88;100.00;95746.75;5011440;28;20246;-69
2023/12/08 09:12:39;;;;;;;18.93;7.90;;;;;;;2.86;100.00;95753.06;5018283;28;20198;-70
2023/12/08 09:15:08;;;;;;;23.20;9.37;;;;;;;3.00;100.00;95753.41;5000149;28;20207;-70
2023/12/08 09:17:34;;;;;;;16.60;7.67;;;;;;;2.79;100.00;95742.41;4998449;28;20203;-70
2023/12/08 09:20:01;;;;;;;22.77;9.10;;;;;;;2.96;100.00;95759.06;4996721;28;20230;-70
2023/12/08 09:22:28;;;;;;;19.97;8.57;;;;;;;3.05;100.00;95753.78;4998462;28;20903;-70
2023/12/08 09:24:54;;;;;;;16.03;7.50;;;;;;;2.92;100.00;95750.69;4998298;28;20214;-70
2023/12/08 09:27:21;;;;;;;20.93;8.50;;;;;;;2.56;100.00;95761.91;4997035;28;20199;-70
2023/12/08 09:29:47;;;;;;;21.50;8.10;;;;;;;2.99;100.00;95764.75;4997894;28;20220;-69
2023/12/08 09:32:15;;;;;;;22.07;8.73;;;;;;;3.19;100.00;95772.34;5018021;28;20218;-69
2023/12/08 09:34:42;;;;;;;22.73;8.20;;;;;;;3.15;100.00;95772.81;5023892;28;20204;-69
2023/12/08 09:37:08;;;;;;;23.90;9.10;;;;;;;3.19;100.00;95771.53;5020172;28;20624;-69
2023/12/08 09:39:35;;;;;;;27.67;10.37;;;;;;;3.25;100.00;95766.56;5017131;28;20783;-69
2023/12/08 09:42:07;;;;;;;35.10;13.47;;;;;;;3.57;100.00;95760.94;5021779;28;20199;-69
2023/12/08 09:44:35;;;;;;;25.87;11.03;;;;;;;3.47;100.00;95762.78;5021819;28;20216;-69
2023/12/08 09:47:04;;;;;;;16.90;8.10;;;;;;;3.68;100.00;95761.56;5022043;28;20211;-69
2023/12/08 09:49:37;;;;;;;18.73;7.23;;;;;;;3.46;100.00;95753.31;5017661;28;20217;-69
2023/12/08 09:52:04;;;;;;;23.83;8.80;;;;;;;3.40;100.00;95757.34;5016037;28;20207;-69
2023/12/08 09:54:32;;;;;;;22.60;8.77;;;;;;;3.41;100.00;95745.13;5018207;28;20199;-69
2023/12/08 09:57:00;;;;;;;18.00;8.40;;;;;;;3.49;100.00;95740.00;5017073;28;20296;-70
2023/12/08 09:59:28;;;;;;;18.50;8.10;;;;;;;3.51;100.00;95746.69;5013303;28;20228;-70
2023/12/08 10:01:56;;;;;;;27.37;10.30;;;;;;;3.39;100.00;95742.66;5001349;28;20287;-70
2023/12/08 10:04:23;;;;;;;23.37;8.40;;;;;;;3.47;100.00;95739.34;4997098;28;20201;-71
2023/12/08 10:06:52;;;;;;;19.00;7.83;;;;;;;3.57;100.00;95732.28;4996745;28;20311;-70
2023/12/08 10:09:20;;;;;;;21.93;9.90;;;;;;;3.42;100.00;95728.53;5002380;28;20207;-71
2023/12/08 10:11:47;;;;;;;16.50;7.77;;;;;;;3.18;100.00;95730.84;4997037;28;20209;-71
2023/12/08 10:14:15;;;;;;;24.53;8.90;;;;;;;3.29;100.00;95738.47;5004593;28;20323;-70
2023/12/08 10:16:43;;;;;;;19.53;8.53;;;;;;;3.44;100.00;95734.44;5004311;28;20206;-70
2023/12/08 10:19:10;;;;;;;25.03;11.13;;;;;;;3.35;100.00;95730.91;5000501;28;20208;-70
2023/12/08 10:21:37;;;;;;;21.07;9.17;;;;;;;3.19;100.00;95728.09;5004360;28;20588;-70
2023/12/08 10:24:09;;;;;;;24.70;8.53;;;;;;;3.49;100.00;95725.19;5006232;28;20207;-70
2023/12/08 10:26:35;;;;;;;21.47;10.03;;;;;;;3.34;100.00;95718.03;5004678;28;20303;-71
2023/12/08 10:29:02;;;;;;;23.83;10.33;;;;;;;3.44;100.00;95724.00;5006012;28;20681;-71
2023/12/08 10:31:29;;;;;;;32.20;9.27;;;;;;;3.46;100.00;95722.88;4996549;28;20228;-71
2023/12/08 10:33:56;;;;;;;24.03;10.37;;;;;;;3.59;100.00;95722.53;4996655;28;20302;-71
2023/12/08 10:36:23;;;;;;;27.07;10.37;;;;;;;3.68;100.00;95723.28;4997018;28;20315;-71
2023/12/08 10:38:52;;;;;;;21.80;8.43;;;;;;;3.62;100.00;95722.25;4996324;28;20211;-71
2023/12/08 10:41:20;;;;;;;26.47;9.10;;;;;;;3.83;100.00;95724.41;4994618;28;20739;-71
2023/12/08 10:43:46;;;;;;;29.43;11.90;;;;;;;3.60;100.00;95719.75;5000853;28;20223;-71
2023/12/08 10:46:13;;;;;;;39.20;13.43;;;;;;;3.55;100.00;95723.78;4997731;28;20236;-71
2023/12/08 10:48:41;;;;;;;27.20;9.77;;;;;;;3.70;100.00;95715.31;4994866;28;20616;-71
2023/12/08 10:51:14;;;;;;;20.73;9.60;;;;;;;3.58;100.00;95716.50;4995792;28;20249;-70
2023/12/08 10:53:41;;;;;;;25.97;9.90;;;;;;;3.61;100.00;95716.19;4995413;28;20210;-71
2023/12/08 10:56:11;;;;;;;21.37;9.13;;;;;;;3.59;100.00;95717.31;5003635;28;20209;-71
2023/12/08 10:58:42;;;;;;;19.67;9.83;;;;;;;3.91;100.00;95708.84;4994747;28;20206;-71
2023/12/08 11:01:12;;;;;;;20.00;8.43;;;;;;;3.64;100.00;95708.91;4996744;28;20234;-71
2023/12/08 11:03:41;;;;;;;28.50;9.27;;;;;;;4.13;100.00;95705.75;4996027;28;20204;-71
2023/12/08 11:06:11;;;;;;;29.13;10.70;;;;;;;4.04;100.00;95704.06;5003668;28;20200;-71
2023/12/08 11:08:44;;;;;;;20.67;10.07;;;;;;;4.07;100.00;95706.34;5003487;28;20215;-70
2023/12/08 11:11:12;;;;;;;18.97;8.80;;;;;;;4.12;100.00;95698.91;5003320;28;20255;-71
2023/12/08 11:13:45;;;;;;;16.77;8.00;;;;;;;4.10;100.00;95695.66;5004334;28;21083;-71
2023/12/08 11:16:24;;;;;;;28.47;8.77;;;;;;;4.33;100.00;95688.97;5003295;28;21064;-72
2023/12/08 11:18:52;;;;;;;19.90;8.53;;;;;;;4.32;100.00;95682.13;4996334;28;21127;-71
2023/12/08 11:21:19;;;;;;;25.00;7.57;;;;;;;4.51;100.00;95687.94;4994622;28;20231;-71